sensor_id;sensor_type;location;lat;lon;timestamp;temperature;humidity
78733;DHT22;68056;52.530;5.454;2023-03-17T00:01:26;8.60;58.40
78733;DHT22;68056;52.530;5.454;2023-03-17T00:03:52;8.70;58.40
78733;DHT22;68056;52.530;5.454;2023-03-17T00:06:27;8.70;58.40
78733;DHT22;68056;52.530;5.454;2023-03-17T00:08:54;8.70;58.40
78733;DHT22;68056;52.530;5.454;2023-03-17T00:11:20;8.80;58.40
78733;DHT22;68056;52.530;5.454;2023-03-17T00:13:47;8.80;58.40
78733;DHT22;68056;52.530;5.454;2023-03-17T00:16:22;8.80;58.30
78733;DHT22;68056;52.530;5.454;2023-03-17T00:18:49;8.90;58.20
78733;DHT22;68056;52.530;5.454;2023-03-17T00:21:27;8.90;58.20
78733;DHT22;68056;52.530;5.454;2023-03-17T00:23:53;8.90;58.20
78733;DHT22;68056;52.530;5.454;2023-03-17T00:26:20;8.90;58.20
78733;DHT22;68056;52.530;5.454;2023-03-17T00:28:46;9.00;58.10
78733;DHT22;68056;52.530;5.454;2023-03-17T00:31:17;9.00;58.00
78733;DHT22;68056;52.530;5.454;2023-03-17T00:33:46;9.00;58.00
78733;DHT22;68056;52.530;5.454;2023-03-17T00:36:18;9.00;58.00
78733;DHT22;68056;52.530;5.454;2023-03-17T00:38:44;9.00;58.00
78733;DHT22;68056;52.530;5.454;2023-03-17T00:41:12;9.00;58.00
78733;DHT22;68056;52.530;5.454;2023-03-17T00:43:38;9.00;58.00
78733;DHT22;68056;52.530;5.454;2023-03-17T00:46:17;9.00;58.00
78733;DHT22;68056;52.530;5.454;2023-03-17T00:48:44;9.00;58.00
78733;DHT22;68056;52.530;5.454;2023-03-17T00:51:11;8.90;57.90
78733;DHT22;68056;52.530;5.454;2023-03-17T00:53:37;8.90;57.90
78733;DHT22;68056;52.530;5.454;2023-03-17T00:56:04;8.90;57.90
78733;DHT22;68056;52.530;5.454;2023-03-17T00:58:32;8.90;58.00
78733;DHT22;68056;52.530;5.454;2023-03-17T01:00:58;8.90;58.00
78733;DHT22;68056;52.530;5.454;2023-03-17T01:03:26;8.90;58.00
78733;DHT22;68056;52.530;5.454;2023-03-17T01:05:53;8.90;58.00
78733;DHT22;68056;52.530;5.454;2023-03-17T01:08:21;8.80;58.00
78733;DHT22;68056;52.530;5.454;2023-03-17T01:10:48;8.80;58.00
78733;DHT22;68056;52.530;5.454;2023-03-17T01:13:14;8.80;58.10
78733;DHT22;68056;52.530;5.454;2023-03-17T01:15:44;8.80;58.10
78733;DHT22;68056;52.530;5.454;2023-03-17T01:18:13;8.80;58.10
78733;DHT22;68056;52.530;5.454;2023-03-17T01:20:41;8.80;58.10
78733;DHT22;68056;52.530;5.454;2023-03-17T01:23:08;8.70;58.10
78733;DHT22;68056;52.530;5.454;2023-03-17T01:25:34;8.70;58.10
78733;DHT22;68056;52.530;5.454;2023-03-17T01:28:00;8.70;58.20
78733;DHT22;68056;52.530;5.454;2023-03-17T01:30:29;8.60;58.20
78733;DHT22;68056;52.530;5.454;2023-03-17T01:32:56;8.60;58.20
78733;DHT22;68056;52.530;5.454;2023-03-17T01:35:22;8.60;58.20
78733;DHT22;68056;52.530;5.454;2023-03-17T01:37:49;8.60;58.20
78733;DHT22;68056;52.530;5.454;2023-03-17T01:40:19;8.60;58.20
78733;DHT22;68056;52.530;5.454;2023-03-17T01:42:51;8.60;58.20
78733;DHT22;68056;52.530;5.454;2023-03-17T01:48:21;8.60;58.10
78733;DHT22;68056;52.530;5.454;2023-03-17T01:50:48;8.60;58.10
78733;DHT22;68056;52.530;5.454;2023-03-17T01:53:14;8.60;58.10
78733;DHT22;68056;52.530;5.454;2023-03-17T01:55:41;8.60;58.00
78733;DHT22;68056;52.530;5.454;2023-03-17T01:58:09;8.60;58.00
78733;DHT22;68056;52.530;5.454;2023-03-17T02:00:35;8.70;57.90
78733;DHT22;68056;52.530;5.454;2023-03-17T02:03:00;8.70;58.00
78733;DHT22;68056;52.530;5.454;2023-03-17T02:05:28;8.70;58.00
78733;DHT22;68056;52.530;5.454;2023-03-17T02:07:55;8.70;58.00
78733;DHT22;68056;52.530;5.454;2023-03-17T02:10:22;8.70;57.90
78733;DHT22;68056;52.530;5.454;2023-03-17T02:12:54;8.70;57.90
78733;DHT22;68056;52.530;5.454;2023-03-17T02:15:21;8.80;57.80
78733;DHT22;68056;52.530;5.454;2023-03-17T02:17:47;8.80;57.90
78733;DHT22;68056;52.530;5.454;2023-03-17T02:22:48;8.80;57.80
78733;DHT22;68056;52.530;5.454;2023-03-17T02:25:15;8.80;57.80
78733;DHT22;68056;52.530;5.454;2023-03-17T02:27:44;8.80;57.70
78733;DHT22;68056;52.530;5.454;2023-03-17T02:30:15;8.80;57.70
78733;DHT22;68056;52.530;5.454;2023-03-17T02:32:41;8.80;57.80
78733;DHT22;68056;52.530;5.454;2023-03-17T02:35:08;8.80;57.70
78733;DHT22;68056;52.530;5.454;2023-03-17T02:37:34;8.80;57.70
78733;DHT22;68056;52.530;5.454;2023-03-17T02:40:00;8.80;57.70
78733;DHT22;68056;52.530;5.454;2023-03-17T02:42:27;8.80;57.80
78733;DHT22;68056;52.530;5.454;2023-03-17T02:44:52;8.80;57.70
78733;DHT22;68056;52.530;5.454;2023-03-17T02:47:19;8.80;57.70
78733;DHT22;68056;52.530;5.454;2023-03-17T02:49:45;8.80;57.70
78733;DHT22;68056;52.530;5.454;2023-03-17T02:52:10;8.80;57.70
78733;DHT22;68056;52.530;5.454;2023-03-17T02:54:37;8.80;57.70
78733;DHT22;68056;52.530;5.454;2023-03-17T02:57:02;8.80;57.70
78733;DHT22;68056;52.530;5.454;2023-03-17T02:59:28;8.80;57.60
78733;DHT22;68056;52.530;5.454;2023-03-17T03:01:54;8.80;57.60
78733;DHT22;68056;52.530;5.454;2023-03-17T03:04:21;8.80;57.60
78733;DHT22;68056;52.530;5.454;2023-03-17T03:06:46;8.90;57.50
78733;DHT22;68056;52.530;5.454;2023-03-17T03:09:13;8.90;57.50
78733;DHT22;68056;52.530;5.454;2023-03-17T03:11:39;8.90;57.50
78733;DHT22;68056;52.530;5.454;2023-03-17T03:14:06;8.90;57.50
78733;DHT22;68056;52.530;5.454;2023-03-17T03:16:33;8.90;57.60
78733;DHT22;68056;52.530;5.454;2023-03-17T03:18:58;8.90;57.50
78733;DHT22;68056;52.530;5.454;2023-03-17T03:21:24;8.90;57.50
78733;DHT22;68056;52.530;5.454;2023-03-17T03:23:49;8.90;57.40
78733;DHT22;68056;52.530;5.454;2023-03-17T03:26:15;8.90;57.40
78733;DHT22;68056;52.530;5.454;2023-03-17T03:28:41;8.90;57.40
78733;DHT22;68056;52.530;5.454;2023-03-17T03:31:07;8.90;57.40
78733;DHT22;68056;52.530;5.454;2023-03-17T03:33:33;8.90;57.30
78733;DHT22;68056;52.530;5.454;2023-03-17T03:35:59;8.90;57.40
78733;DHT22;68056;52.530;5.454;2023-03-17T03:38:26;8.90;57.30
78733;DHT22;68056;52.530;5.454;2023-03-17T03:40:52;8.90;57.30
78733;DHT22;68056;52.530;5.454;2023-03-17T03:43:17;8.90;57.30
78733;DHT22;68056;52.530;5.454;2023-03-17T03:45:43;8.90;57.30
78733;DHT22;68056;52.530;5.454;2023-03-17T03:48:09;8.90;57.20
78733;DHT22;68056;52.530;5.454;2023-03-17T03:50:34;8.90;57.30
78733;DHT22;68056;52.530;5.454;2023-03-17T03:53:00;8.90;57.20
78733;DHT22;68056;52.530;5.454;2023-03-17T03:55:26;8.90;57.20
78733;DHT22;68056;52.530;5.454;2023-03-17T03:57:51;8.90;57.30
78733;DHT22;68056;52.530;5.454;2023-03-17T04:00:17;8.90;57.20
78733;DHT22;68056;52.530;5.454;2023-03-17T04:02:43;8.90;57.30
78733;DHT22;68056;52.530;5.454;2023-03-17T04:05:13;8.90;57.20
78733;DHT22;68056;52.530;5.454;2023-03-17T04:07:40;8.90;57.20
78733;DHT22;68056;52.530;5.454;2023-03-17T04:10:08;8.90;57.30
78733;DHT22;68056;52.530;5.454;2023-03-17T04:12:34;8.90;57.20
78733;DHT22;68056;52.530;5.454;2023-03-17T04:15:00;8.90;57.20
78733;DHT22;68056;52.530;5.454;2023-03-17T04:17:26;8.90;57.20
78733;DHT22;68056;52.530;5.454;2023-03-17T04:19:52;8.90;57.20
78733;DHT22;68056;52.530;5.454;2023-03-17T04:22:17;8.90;57.10
78733;DHT22;68056;52.530;5.454;2023-03-17T04:24:43;8.90;57.10
78733;DHT22;68056;52.530;5.454;2023-03-17T04:27:08;8.90;57.10
78733;DHT22;68056;52.530;5.454;2023-03-17T04:29:34;8.90;57.20
78733;DHT22;68056;52.530;5.454;2023-03-17T04:32:01;8.90;57.20
78733;DHT22;68056;52.530;5.454;2023-03-17T04:34:27;8.80;57.20
78733;DHT22;68056;52.530;5.454;2023-03-17T04:36:53;8.80;57.20
78733;DHT22;68056;52.530;5.454;2023-03-17T04:39:19;8.90;57.20
78733;DHT22;68056;52.530;5.454;2023-03-17T04:41:45;8.80;57.20
78733;DHT22;68056;52.530;5.454;2023-03-17T04:44:11;8.80;57.20
78733;DHT22;68056;52.530;5.454;2023-03-17T04:46:36;8.90;57.30
78733;DHT22;68056;52.530;5.454;2023-03-17T04:49:03;8.80;57.30
78733;DHT22;68056;52.530;5.454;2023-03-17T04:51:29;8.80;57.30
78733;DHT22;68056;52.530;5.454;2023-03-17T04:53:55;8.80;57.30
78733;DHT22;68056;52.530;5.454;2023-03-17T04:56:21;8.80;57.30
78733;DHT22;68056;52.530;5.454;2023-03-17T04:58:46;8.80;57.30
78733;DHT22;68056;52.530;5.454;2023-03-17T05:01:12;8.80;57.30
78733;DHT22;68056;52.530;5.454;2023-03-17T05:03:38;8.80;57.30
78733;DHT22;68056;52.530;5.454;2023-03-17T05:06:04;8.80;57.30
78733;DHT22;68056;52.530;5.454;2023-03-17T05:08:29;8.80;57.40
78733;DHT22;68056;52.530;5.454;2023-03-17T05:10:56;8.80;57.40
78733;DHT22;68056;52.530;5.454;2023-03-17T05:13:22;8.80;57.40
78733;DHT22;68056;52.530;5.454;2023-03-17T05:15:52;8.80;57.40
78733;DHT22;68056;52.530;5.454;2023-03-17T05:18:21;8.70;57.40
78733;DHT22;68056;52.530;5.454;2023-03-17T05:20:47;8.80;57.40
78733;DHT22;68056;52.530;5.454;2023-03-17T05:23:12;8.70;57.50
78733;DHT22;68056;52.530;5.454;2023-03-17T05:25:38;8.70;57.50
78733;DHT22;68056;52.530;5.454;2023-03-17T05:28:05;8.70;57.40
78733;DHT22;68056;52.530;5.454;2023-03-17T05:30:31;8.70;57.50
78733;DHT22;68056;52.530;5.454;2023-03-17T05:32:57;8.70;57.40
78733;DHT22;68056;52.530;5.454;2023-03-17T05:35:23;8.70;57.50
78733;DHT22;68056;52.530;5.454;2023-03-17T05:37:49;8.80;57.40
78733;DHT22;68056;52.530;5.454;2023-03-17T05:40:15;8.80;57.40
78733;DHT22;68056;52.530;5.454;2023-03-17T05:42:41;8.70;57.40
78733;DHT22;68056;52.530;5.454;2023-03-17T05:45:07;8.80;57.40
78733;DHT22;68056;52.530;5.454;2023-03-17T05:47:34;8.80;57.30
78733;DHT22;68056;52.530;5.454;2023-03-17T05:50:00;8.80;57.40
78733;DHT22;68056;52.530;5.454;2023-03-17T05:52:26;8.80;57.30
78733;DHT22;68056;52.530;5.454;2023-03-17T05:54:53;8.80;57.40
78733;DHT22;68056;52.530;5.454;2023-03-17T05:57:19;8.80;57.30
78733;DHT22;68056;52.530;5.454;2023-03-17T05:59:45;8.80;57.40
78733;DHT22;68056;52.530;5.454;2023-03-17T06:02:11;8.80;57.30
78733;DHT22;68056;52.530;5.454;2023-03-17T06:04:37;8.80;57.30
78733;DHT22;68056;52.530;5.454;2023-03-17T06:07:03;8.90;57.30
78733;DHT22;68056;52.530;5.454;2023-03-17T06:09:30;8.90;57.40
78733;DHT22;68056;52.530;5.454;2023-03-17T06:11:56;8.90;57.40
78733;DHT22;68056;52.530;5.454;2023-03-17T06:14:22;8.90;57.40
78733;DHT22;68056;52.530;5.454;2023-03-17T06:16:48;8.90;57.40
78733;DHT22;68056;52.530;5.454;2023-03-17T06:19:13;8.90;57.50
78733;DHT22;68056;52.530;5.454;2023-03-17T06:21:39;8.90;57.50
78733;DHT22;68056;52.530;5.454;2023-03-17T06:24:06;8.90;57.50
78733;DHT22;68056;52.530;5.454;2023-03-17T06:26:32;8.90;57.50
78733;DHT22;68056;52.530;5.454;2023-03-17T06:28:57;8.90;57.50
78733;DHT22;68056;52.530;5.454;2023-03-17T06:31:23;8.90;57.50
78733;DHT22;68056;52.530;5.454;2023-03-17T06:33:49;8.90;57.50
78733;DHT22;68056;52.530;5.454;2023-03-17T06:36:15;8.90;57.50
78733;DHT22;68056;52.530;5.454;2023-03-17T06:38:41;8.90;57.50
78733;DHT22;68056;52.530;5.454;2023-03-17T06:41:08;8.90;57.50
78733;DHT22;68056;52.530;5.454;2023-03-17T06:43:34;9.00;57.50
78733;DHT22;68056;52.530;5.454;2023-03-17T06:46:00;9.00;57.50
78733;DHT22;68056;52.530;5.454;2023-03-17T06:48:26;9.00;57.50
78733;DHT22;68056;52.530;5.454;2023-03-17T06:50:53;9.00;57.40
78733;DHT22;68056;52.530;5.454;2023-03-17T06:53:18;9.00;57.40
78733;DHT22;68056;52.530;5.454;2023-03-17T06:55:44;9.00;57.40
78733;DHT22;68056;52.530;5.454;2023-03-17T06:58:10;9.00;57.40
78733;DHT22;68056;52.530;5.454;2023-03-17T07:00:37;9.00;57.40
78733;DHT22;68056;52.530;5.454;2023-03-17T07:03:04;9.10;57.40
78733;DHT22;68056;52.530;5.454;2023-03-17T07:05:31;9.10;57.40
78733;DHT22;68056;52.530;5.454;2023-03-17T07:07:56;9.20;57.50
78733;DHT22;68056;52.530;5.454;2023-03-17T07:10:22;9.30;57.40
78733;DHT22;68056;52.530;5.454;2023-03-17T07:12:47;9.40;57.30
78733;DHT22;68056;52.530;5.454;2023-03-17T07:15:13;9.60;57.20
78733;DHT22;68056;52.530;5.454;2023-03-17T07:17:39;9.70;56.90
78733;DHT22;68056;52.530;5.454;2023-03-17T07:20:05;9.90;56.70
78733;DHT22;68056;52.530;5.454;2023-03-17T07:22:31;10.00;56.60
78733;DHT22;68056;52.530;5.454;2023-03-17T07:24:57;10.10;56.50
78733;DHT22;68056;52.530;5.454;2023-03-17T07:27:23;10.10;56.40
78733;DHT22;68056;52.530;5.454;2023-03-17T07:29:51;10.10;56.40
78733;DHT22;68056;52.530;5.454;2023-03-17T07:32:17;10.10;56.30
78733;DHT22;68056;52.530;5.454;2023-03-17T07:34:42;10.00;56.40
78733;DHT22;68056;52.530;5.454;2023-03-17T07:37:08;10.00;56.40
78733;DHT22;68056;52.530;5.454;2023-03-17T07:39:34;10.00;56.40
78733;DHT22;68056;52.530;5.454;2023-03-17T07:42:00;10.10;56.40
78733;DHT22;68056;52.530;5.454;2023-03-17T07:44:26;10.10;56.40
78733;DHT22;68056;52.530;5.454;2023-03-17T07:46:52;10.20;56.40
78733;DHT22;68056;52.530;5.454;2023-03-17T07:49:18;10.30;56.30
78733;DHT22;68056;52.530;5.454;2023-03-17T07:51:44;10.40;56.20
78733;DHT22;68056;52.530;5.454;2023-03-17T07:54:10;10.50;56.20
78733;DHT22;68056;52.530;5.454;2023-03-17T07:56:37;10.70;56.10
78733;DHT22;68056;52.530;5.454;2023-03-17T07:59:04;10.90;55.80
78733;DHT22;68056;52.530;5.454;2023-03-17T08:01:30;11.00;55.70
78733;DHT22;68056;52.530;5.454;2023-03-17T08:03:56;11.00;55.60
78733;DHT22;68056;52.530;5.454;2023-03-17T08:06:22;11.00;55.50
78733;DHT22;68056;52.530;5.454;2023-03-17T08:08:50;11.10;55.40
78733;DHT22;68056;52.530;5.454;2023-03-17T08:11:16;11.10;55.20
78733;DHT22;68056;52.530;5.454;2023-03-17T08:13:43;11.40;55.20
78733;DHT22;68056;52.530;5.454;2023-03-17T08:16:08;11.70;55.00
78733;DHT22;68056;52.530;5.454;2023-03-17T08:18:34;12.00;54.70
78733;DHT22;68056;52.530;5.454;2023-03-17T08:21:01;12.50;54.30
78733;DHT22;68056;52.530;5.454;2023-03-17T08:23:27;12.80;53.90
78733;DHT22;68056;52.530;5.454;2023-03-17T08:25:57;13.10;53.50
78733;DHT22;68056;52.530;5.454;2023-03-17T08:28:23;13.20;53.20
78733;DHT22;68056;52.530;5.454;2023-03-17T08:30:49;13.10;53.20
78733;DHT22;68056;52.530;5.454;2023-03-17T08:33:15;13.00;53.30
78733;DHT22;68056;52.530;5.454;2023-03-17T08:35:41;13.10;53.50
78733;DHT22;68056;52.530;5.454;2023-03-17T08:38:07;13.40;53.20
78733;DHT22;68056;52.530;5.454;2023-03-17T08:40:33;13.60;52.90
78733;DHT22;68056;52.530;5.454;2023-03-17T08:42:59;13.70;52.80
78733;DHT22;68056;52.530;5.454;2023-03-17T08:45:24;13.80;52.60
78733;DHT22;68056;52.530;5.454;2023-03-17T08:47:50;13.90;52.50
78733;DHT22;68056;52.530;5.454;2023-03-17T08:50:19;14.20;52.40
78733;DHT22;68056;52.530;5.454;2023-03-17T08:52:46;14.60;52.20
78733;DHT22;68056;52.530;5.454;2023-03-17T08:55:14;14.90;51.70
78733;DHT22;68056;52.530;5.454;2023-03-17T08:57:40;15.30;51.30
78733;DHT22;68056;52.530;5.454;2023-03-17T09:00:07;15.60;51.10
78733;DHT22;68056;52.530;5.454;2023-03-17T09:02:41;15.80;50.80
78733;DHT22;68056;52.530;5.454;2023-03-17T09:05:13;15.80;50.40
78733;DHT22;68056;52.530;5.454;2023-03-17T09:07:40;15.90;50.40
78733;DHT22;68056;52.530;5.454;2023-03-17T09:10:07;16.10;50.10
78733;DHT22;68056;52.530;5.454;2023-03-17T09:12:34;16.10;50.10
78733;DHT22;68056;52.530;5.454;2023-03-17T09:14:59;16.30;50.00
78733;DHT22;68056;52.530;5.454;2023-03-17T09:17:26;16.40;49.70
78733;DHT22;68056;52.530;5.454;2023-03-17T09:19:51;16.50;49.30
78733;DHT22;68056;52.530;5.454;2023-03-17T09:22:17;16.70;49.40
78733;DHT22;68056;52.530;5.454;2023-03-17T09:24:43;16.70;49.20
78733;DHT22;68056;52.530;5.454;2023-03-17T09:27:09;16.70;49.20
78733;DHT22;68056;52.530;5.454;2023-03-17T09:29:35;16.80;49.30
78733;DHT22;68056;52.530;5.454;2023-03-17T09:32:01;16.90;49.20
78733;DHT22;68056;52.530;5.454;2023-03-17T09:34:26;16.90;49.10
78733;DHT22;68056;52.530;5.454;2023-03-17T09:36:53;16.90;49.40
78733;DHT22;68056;52.530;5.454;2023-03-17T09:39:19;17.20;49.20
78733;DHT22;68056;52.530;5.454;2023-03-17T09:45:00;17.50;48.90
78733;DHT22;68056;52.530;5.454;2023-03-17T09:47:50;17.70;48.90
78733;DHT22;68056;52.530;5.454;2023-03-17T09:53:30;18.20;48.90
78733;DHT22;68056;52.530;5.454;2023-03-17T09:56:01;18.50;48.60
78733;DHT22;68056;52.530;5.454;2023-03-17T09:58:30;18.90;48.50
78733;DHT22;68056;52.530;5.454;2023-03-17T10:00:57;19.00;48.00
78733;DHT22;68056;52.530;5.454;2023-03-17T10:03:23;18.70;48.30
78733;DHT22;68056;52.530;5.454;2023-03-17T10:05:53;18.30;48.40
78733;DHT22;68056;52.530;5.454;2023-03-17T10:08:28;18.00;48.80
78733;DHT22;68056;52.530;5.454;2023-03-17T10:11:27;17.80;49.10
78733;DHT22;68056;52.530;5.454;2023-03-17T10:16:33;17.40;49.40
78733;DHT22;68056;52.530;5.454;2023-03-17T10:24:46;17.10;49.90
78733;DHT22;68056;52.530;5.454;2023-03-17T10:27:13;17.40;49.80
78733;DHT22;68056;52.530;5.454;2023-03-17T10:29:40;18.00;49.70
78733;DHT22;68056;52.530;5.454;2023-03-17T10:32:12;18.60;49.10
78733;DHT22;68056;52.530;5.454;2023-03-17T10:34:39;18.90;48.30
78733;DHT22;68056;52.530;5.454;2023-03-17T10:37:07;19.10;48.10
78733;DHT22;68056;52.530;5.454;2023-03-17T10:39:48;19.20;48.00
78733;DHT22;68056;52.530;5.454;2023-03-17T10:42:24;19.30;47.80
78733;DHT22;68056;52.530;5.454;2023-03-17T10:44:55;19.50;47.50
78733;DHT22;68056;52.530;5.454;2023-03-17T10:49:50;19.80;47.50
78733;DHT22;68056;52.530;5.454;2023-03-17T10:52:25;20.00;47.50
78733;DHT22;68056;52.530;5.454;2023-03-17T10:54:52;20.30;47.50
78733;DHT22;68056;52.530;5.454;2023-03-17T10:57:19;20.30;47.30
78733;DHT22;68056;52.530;5.454;2023-03-17T10:59:53;20.00;47.50
78733;DHT22;68056;52.530;5.454;2023-03-17T11:02:27;19.50;47.90
78733;DHT22;68056;52.530;5.454;2023-03-17T11:04:59;18.90;48.40
78733;DHT22;68056;52.530;5.454;2023-03-17T11:07:39;18.40;48.90
78733;DHT22;68056;52.530;5.454;2023-03-17T11:10:26;18.00;49.30
78733;DHT22;68056;52.530;5.454;2023-03-17T11:12:58;17.80;49.70
78733;DHT22;68056;52.530;5.454;2023-03-17T11:15:36;17.60;50.00
78733;DHT22;68056;52.530;5.454;2023-03-17T11:18:35;17.50;50.10
78733;DHT22;68056;52.530;5.454;2023-03-17T11:24:15;17.40;50.30
78733;DHT22;68056;52.530;5.454;2023-03-17T11:27:04;17.50;50.30
78733;DHT22;68056;52.530;5.454;2023-03-17T11:29:37;17.70;50.10
78733;DHT22;68056;52.530;5.454;2023-03-17T11:32:17;18.00;50.00
78733;DHT22;68056;52.530;5.454;2023-03-17T11:37:58;18.80;49.40
78733;DHT22;68056;52.530;5.454;2023-03-17T11:40:32;19.00;49.20
78733;DHT22;68056;52.530;5.454;2023-03-17T11:48:29;18.40;49.70
78733;DHT22;68056;52.530;5.454;2023-03-17T11:51:04;18.10;50.10
78733;DHT22;68056;52.530;5.454;2023-03-17T11:56:17;18.00;50.30
78733;DHT22;68056;52.530;5.454;2023-03-17T11:58:50;17.80;50.40
78733;DHT22;68056;52.530;5.454;2023-03-17T12:01:27;17.50;50.60
78733;DHT22;68056;52.530;5.454;2023-03-17T12:04:08;17.40;50.80
78733;DHT22;68056;52.530;5.454;2023-03-17T12:06:43;17.20;51.00
78733;DHT22;68056;52.530;5.454;2023-03-17T12:11:48;17.20;51.20
78733;DHT22;68056;52.530;5.454;2023-03-17T12:16:49;17.40;51.30
78733;DHT22;68056;52.530;5.454;2023-03-17T12:22:02;17.60;51.20
78733;DHT22;68056;52.530;5.454;2023-03-17T12:25:01;17.60;51.20
78733;DHT22;68056;52.530;5.454;2023-03-17T12:27:32;17.70;51.00
78733;DHT22;68056;52.530;5.454;2023-03-17T12:33:06;17.50;51.30
78733;DHT22;68056;52.530;5.454;2023-03-17T12:35:38;17.40;51.40
78733;DHT22;68056;52.530;5.454;2023-03-17T12:38:29;17.40;51.50
78733;DHT22;68056;52.530;5.454;2023-03-17T12:44:06;17.20;51.50
78733;DHT22;68056;52.530;5.454;2023-03-17T12:52:46;17.20;51.60
78733;DHT22;68056;52.530;5.454;2023-03-17T12:55:23;17.20;51.70
78733;DHT22;68056;52.530;5.454;2023-03-17T12:58:04;17.40;51.70
78733;DHT22;68056;52.530;5.454;2023-03-17T13:00:46;17.60;51.70
78733;DHT22;68056;52.530;5.454;2023-03-17T13:03:26;17.80;51.50
78733;DHT22;68056;52.530;5.454;2023-03-17T13:06:01;18.00;51.30
78733;DHT22;68056;52.530;5.454;2023-03-17T13:08:33;18.10;51.20
78733;DHT22;68056;52.530;5.454;2023-03-17T13:14:39;18.30;51.10
78733;DHT22;68056;52.530;5.454;2023-03-17T13:20:14;18.20;51.10
78733;DHT22;68056;52.530;5.454;2023-03-17T13:23:00;18.30;51.10
78733;DHT22;68056;52.530;5.454;2023-03-17T13:25:48;18.30;51.10
78733;DHT22;68056;52.530;5.454;2023-03-17T13:33:31;18.00;51.60
78733;DHT22;68056;52.530;5.454;2023-03-17T13:36:26;17.90;51.70
78733;DHT22;68056;52.530;5.454;2023-03-17T13:47:33;17.50;52.20
78733;DHT22;68056;52.530;5.454;2023-03-17T13:50:11;17.50;52.30
78733;DHT22;68056;52.530;5.454;2023-03-17T13:58:15;17.70;52.30
78733;DHT22;68056;52.530;5.454;2023-03-17T14:00:46;17.80;52.30
78733;DHT22;68056;52.530;5.454;2023-03-17T14:03:36;17.80;52.30
78733;DHT22;68056;52.530;5.454;2023-03-17T14:06:06;17.80;52.30
78733;DHT22;68056;52.530;5.454;2023-03-17T14:08:35;17.60;52.40
78733;DHT22;68056;52.530;5.454;2023-03-17T14:11:07;17.60;52.40
78733;DHT22;68056;52.530;5.454;2023-03-17T14:13:42;17.60;52.50
78733;DHT22;68056;52.530;5.454;2023-03-17T14:16:19;17.50;52.60
78733;DHT22;68056;52.530;5.454;2023-03-17T14:18:51;17.50;52.60
78733;DHT22;68056;52.530;5.454;2023-03-17T14:21:23;17.60;52.60
78733;DHT22;68056;52.530;5.454;2023-03-17T14:24:00;17.60;52.70
78733;DHT22;68056;52.530;5.454;2023-03-17T14:26:27;17.70;52.50
78733;DHT22;68056;52.530;5.454;2023-03-17T14:28:54;17.80;52.50
78733;DHT22;68056;52.530;5.454;2023-03-17T14:31:25;17.80;52.50
78733;DHT22;68056;52.530;5.454;2023-03-17T14:33:55;17.60;52.50
78733;DHT22;68056;52.530;5.454;2023-03-17T14:36:21;17.50;52.60
78733;DHT22;68056;52.530;5.454;2023-03-17T14:38:51;17.40;52.70
78733;DHT22;68056;52.530;5.454;2023-03-17T14:41:18;17.30;52.80
78733;DHT22;68056;52.530;5.454;2023-03-17T14:43:45;17.20;53.00
78733;DHT22;68056;52.530;5.454;2023-03-17T14:48:41;17.20;53.10
78733;DHT22;68056;52.530;5.454;2023-03-17T14:51:31;17.20;53.10
78733;DHT22;68056;52.530;5.454;2023-03-17T14:54:18;17.30;53.20
78733;DHT22;68056;52.530;5.454;2023-03-17T14:56:50;17.40;53.10
78733;DHT22;68056;52.530;5.454;2023-03-17T14:59:27;17.40;53.20
78733;DHT22;68056;52.530;5.454;2023-03-17T15:01:56;17.50;53.00
78733;DHT22;68056;52.530;5.454;2023-03-17T15:04:27;17.40;53.00
78733;DHT22;68056;52.530;5.454;2023-03-17T15:06:57;17.40;53.10
78733;DHT22;68056;52.530;5.454;2023-03-17T15:09:35;17.30;53.10
78733;DHT22;68056;52.530;5.454;2023-03-17T15:12:22;17.30;53.20
78733;DHT22;68056;52.530;5.454;2023-03-17T15:15:37;17.40;53.20
78733;DHT22;68056;52.530;5.454;2023-03-17T15:17:37;17.40;53.20
78733;DHT22;68056;52.530;5.454;2023-03-17T15:20:06;17.50;53.10
78733;DHT22;68056;52.530;5.454;2023-03-17T15:22:41;17.40;53.20
78733;DHT22;68056;52.530;5.454;2023-03-17T15:25:25;17.40;53.10
78733;DHT22;68056;52.530;5.454;2023-03-17T15:27:51;17.50;53.00
78733;DHT22;68056;52.530;5.454;2023-03-17T15:30:18;17.60;52.90
78733;DHT22;68056;52.530;5.454;2023-03-17T15:32:56;17.60;52.90
78733;DHT22;68056;52.530;5.454;2023-03-17T15:35:23;17.60;52.90
78733;DHT22;68056;52.530;5.454;2023-03-17T15:37:48;17.60;53.00
78733;DHT22;68056;52.530;5.454;2023-03-17T15:40:14;17.60;53.00
78733;DHT22;68056;52.530;5.454;2023-03-17T15:42:40;17.60;53.00
78733;DHT22;68056;52.530;5.454;2023-03-17T15:45:06;17.60;53.10
78733;DHT22;68056;52.530;5.454;2023-03-17T15:47:34;17.60;53.20
78733;DHT22;68056;52.530;5.454;2023-03-17T15:50:22;17.50;53.20
78733;DHT22;68056;52.530;5.454;2023-03-17T15:52:50;17.50;53.20
78733;DHT22;68056;52.530;5.454;2023-03-17T15:55:25;17.40;53.30
78733;DHT22;68056;52.530;5.454;2023-03-17T15:57:53;17.30;53.40
78733;DHT22;68056;52.530;5.454;2023-03-17T16:00:20;17.20;53.50
78733;DHT22;68056;52.530;5.454;2023-03-17T16:02:48;17.10;53.50
78733;DHT22;68056;52.530;5.454;2023-03-17T16:05:20;17.00;53.70
78733;DHT22;68056;52.530;5.454;2023-03-17T16:07:47;17.00;53.70
78733;DHT22;68056;52.530;5.454;2023-03-17T16:10:21;17.00;53.70
78733;DHT22;68056;52.530;5.454;2023-03-17T16:12:48;17.00;53.70
78733;DHT22;68056;52.530;5.454;2023-03-17T16:15:20;17.00;53.80
78733;DHT22;68056;52.530;5.454;2023-03-17T16:17:47;16.90;53.80
78733;DHT22;68056;52.530;5.454;2023-03-17T16:20:23;16.90;53.90
78733;DHT22;68056;52.530;5.454;2023-03-17T16:22:52;16.80;54.00
78733;DHT22;68056;52.530;5.454;2023-03-17T16:25:24;16.70;54.00
78733;DHT22;68056;52.530;5.454;2023-03-17T16:27:51;16.70;54.10
78733;DHT22;68056;52.530;5.454;2023-03-17T16:30:23;16.60;54.20
78733;DHT22;68056;52.530;5.454;2023-03-17T16:32:49;16.60;54.30
78733;DHT22;68056;52.530;5.454;2023-03-17T16:35:18;16.50;54.40
78733;DHT22;68056;52.530;5.454;2023-03-17T16:37:44;16.50;54.40
78733;DHT22;68056;52.530;5.454;2023-03-17T16:40:22;16.50;54.50
78733;DHT22;68056;52.530;5.454;2023-03-17T16:42:49;16.40;54.60
78733;DHT22;68056;52.530;5.454;2023-03-17T16:45:25;16.40;54.60
78733;DHT22;68056;52.530;5.454;2023-03-17T16:47:52;16.40;54.60
78733;DHT22;68056;52.530;5.454;2023-03-17T16:50:21;16.40;54.70
78733;DHT22;68056;52.530;5.454;2023-03-17T16:52:48;16.30;54.70
78733;DHT22;68056;52.530;5.454;2023-03-17T16:55:14;16.20;54.70
78733;DHT22;68056;52.530;5.454;2023-03-17T16:57:41;16.20;54.80
78733;DHT22;68056;52.530;5.454;2023-03-17T17:00:18;16.10;54.80
78733;DHT22;68056;52.530;5.454;2023-03-17T17:02:44;16.10;54.90
78733;DHT22;68056;52.530;5.454;2023-03-17T17:05:18;16.00;55.00
78733;DHT22;68056;52.530;5.454;2023-03-17T17:07:44;16.00;55.00
78733;DHT22;68056;52.530;5.454;2023-03-17T17:10:12;16.00;55.00
78733;DHT22;68056;52.530;5.454;2023-03-17T17:12:38;16.00;55.10
78733;DHT22;68056;52.530;5.454;2023-03-17T17:15:04;16.00;55.10